Time;durP1;ratioP1;P1;durP2;ratioP2;P2;SDS_P1;SDS_P2;PMS_P1;PMS_P2;Temp;Humidity;BMP_temperature;BMP_pressure;BME280_temperature;BME280_humidity;BME280_pressure;Samples;Min_cycle;Max_cycle;Signal;HPM_P1;HPM_P2
2023/07/25 00:02:15;;;;;;;22.55;6.65;;;;;;;;;;5045122;28;20291;-79
2023/07/25 00:04:42;;;;;;;21.60;6.60;;;;;;;;;;5054176;28;21313;-77
2023/07/25 00:07:08;;;;;;;18.08;6.65;;;;;;;;;;5064445;28;20119;-79
2023/07/25 00:09:34;;;;;;;26.17;7.40;;;;;;;;;;5062217;28;20068;-76
2023/07/25 00:12:00;;;;;;;30.10;6.90;;;;;;;;;;5054274;28;20049;-77
2023/07/25 00:14:35;;;;;;;18.05;6.80;;;;;;;;;;5045461;28;20057;-75
2023/07/25 00:17:01;;;;;;;24.73;6.55;;;;;;;;;;5038389;28;20053;-76
2023/07/25 00:19:27;;;;;;;19.52;5.97;;;;;;;;;;5051944;28;20540;-77
2023/07/25 00:21:53;;;;;;;19.17;7.25;;;;;;;;;;5048154;28;20073;-77
2023/07/25 00:24:19;;;;;;;20.13;6.70;;;;;;;;;;5071223;28;20101;-78
2023/07/25 00:26:45;;;;;;;24.55;6.85;;;;;;;;;;5058415;28;20068;-76
2023/07/25 00:29:11;;;;;;;22.70;6.28;;;;;;;;;;5056646;28;20041;-77
2023/07/25 00:31:37;;;;;;;18.65;6.60;;;;;;;;;;5052610;28;20037;-77
2023/07/25 00:34:06;;;;;;;26.52;7.10;;;;;;;;;;5054078;28;20136;-76
2023/07/25 00:36:32;;;;;;;18.08;6.57;;;;;;;;;;5051840;28;20056;-76
2023/07/25 00:39:00;;;;;;;21.13;7.20;;;;;;;;;;5045876;28;20060;-75
2023/07/25 00:41:26;;;;;;;21.95;6.47;;;;;;;;;;5052507;28;20056;-77
2023/07/25 00:43:52;;;;;;;16.40;5.85;;;;;;;;;;5053283;28;20082;-78
2023/07/25 00:46:18;;;;;;;17.63;5.97;;;;;;;;;;5046694;28;20042;-77
2023/07/25 00:48:46;;;;;;;24.73;6.32;;;;;;;;;;5045719;28;20195;-75
2023/07/25 00:51:12;;;;;;;21.05;5.72;;;;;;;;;;5047322;28;20536;-76
2023/07/25 00:53:38;;;;;;;18.58;5.63;;;;;;;;;;5056395;28;20060;-77
2023/07/25 00:56:05;;;;;;;20.23;5.97;;;;;;;;;;5052597;28;20061;-75
2023/07/25 00:58:32;;;;;;;17.95;5.65;;;;;;;;;;5050976;28;20110;-77
2023/07/25 01:01:07;;;;;;;17.33;5.70;;;;;;;;;;5052845;28;20063;-76
2023/07/25 01:03:38;;;;;;;18.95;5.88;;;;;;;;;;5050821;28;20049;-78
2023/07/25 01:06:11;;;;;;;15.32;5.60;;;;;;;;;;5047248;28;20045;-76
2023/07/25 01:08:51;;;;;;;14.93;5.37;;;;;;;;;;5048506;28;20056;-77
2023/07/25 01:11:17;;;;;;;21.63;5.80;;;;;;;;;;5047982;28;20041;-77
2023/07/25 01:13:44;;;;;;;17.23;6.10;;;;;;;;;;5050639;28;20155;-76
2023/07/25 01:16:22;;;;;;;15.45;5.47;;;;;;;;;;5056089;28;20059;-78
2023/07/25 01:18:50;;;;;;;15.77;5.50;;;;;;;;;;5043996;28;20524;-77
2023/07/25 01:21:16;;;;;;;10.82;4.90;;;;;;;;;;5044385;28;20496;-77
2023/07/25 01:23:43;;;;;;;15.32;5.68;;;;;;;;;;5054713;28;20064;-78
2023/07/25 01:26:10;;;;;;;20.98;6.45;;;;;;;;;;5060519;28;20075;-75
2023/07/25 01:28:38;;;;;;;14.05;5.80;;;;;;;;;;5050718;28;20046;-77
2023/07/25 01:31:04;;;;;;;20.23;5.70;;;;;;;;;;5056404;28;20112;-76
2023/07/25 01:33:30;;;;;;;14.90;5.38;;;;;;;;;;5058964;28;20057;-76
2023/07/25 01:35:56;;;;;;;15.75;5.32;;;;;;;;;;5059522;28;20059;-78
2023/07/25 01:38:23;;;;;;;14.60;5.90;;;;;;;;;;5058896;28;20070;-77
2023/07/25 01:40:49;;;;;;;13.05;4.88;;;;;;;;;;5056514;28;20049;-79
2023/07/25 01:43:15;;;;;;;13.52;4.93;;;;;;;;;;5053900;28;20041;-77
2023/07/25 01:45:40;;;;;;;18.10;5.95;;;;;;;;;;5054259;28;20045;-77
2023/07/25 01:48:09;;;;;;;16.80;5.72;;;;;;;;;;5054106;28;20056;-76
2023/07/25 01:50:36;;;;;;;12.88;4.82;;;;;;;;;;5053252;28;20045;-76
2023/07/25 01:53:02;;;;;;;17.33;4.97;;;;;;;;;;5048909;28;20052;-75
2023/07/25 01:55:28;;;;;;;12.18;4.53;;;;;;;;;;5051174;28;20078;-75
2023/07/25 01:57:54;;;;;;;14.82;4.63;;;;;;;;;;5051437;28;20057;-76
2023/07/25 02:00:20;;;;;;;13.93;4.35;;;;;;;;;;5051860;28;20459;-74
2023/07/25 02:02:46;;;;;;;7.63;3.83;;;;;;;;;;5050934;28;20049;-76
2023/07/25 02:05:11;;;;;;;12.82;4.97;;;;;;;;;;5046046;28;20120;-76
2023/07/25 02:07:38;;;;;;;10.88;3.97;;;;;;;;;;5053061;28;20111;-76
2023/07/25 02:10:04;;;;;;;10.55;4.00;;;;;;;;;;5048049;28;20091;-76
2023/07/25 02:12:31;;;;;;;10.43;4.53;;;;;;;;;;5042752;28;20048;-76
2023/07/25 02:14:57;;;;;;;14.88;4.63;;;;;;;;;;5046800;28;20053;-75
2023/07/25 02:17:23;;;;;;;10.05;4.20;;;;;;;;;;5046246;28;20037;-76
2023/07/25 02:19:49;;;;;;;15.85;4.45;;;;;;;;;;5048455;28;20051;-75
2023/07/25 02:22:15;;;;;;;11.85;3.85;;;;;;;;;;5049032;28;20143;-78
2023/07/25 02:24:42;;;;;;;8.85;4.07;;;;;;;;;;5063515;28;20052;-76
2023/07/25 02:27:09;;;;;;;10.63;4.22;;;;;;;;;;5056519;28;20179;-77
2023/07/25 02:29:35;;;;;;;12.35;4.20;;;;;;;;;;5051209;28;20413;-78
2023/07/25 02:32:02;;;;;;;10.23;4.25;;;;;;;;;;5057839;28;20124;-76
2023/07/25 02:34:28;;;;;;;13.43;3.90;;;;;;;;;;5051127;28;20052;-77
2023/07/25 02:36:54;;;;;;;13.80;4.25;;;;;;;;;;5032857;28;20504;-75
2023/07/25 02:39:20;;;;;;;9.00;4.13;;;;;;;;;;5049814;28;20075;-75
2023/07/25 02:41:56;;;;;;;13.38;4.28;;;;;;;;;;5043540;28;20049;-76
2023/07/25 02:44:21;;;;;;;8.13;3.80;;;;;;;;;;5043866;28;20053;-77
2023/07/25 02:46:49;;;;;;;9.77;3.30;;;;;;;;;;5051172;28;20087;-77
2023/07/25 02:49:14;;;;;;;8.15;3.13;;;;;;;;;;5053022;28;20580;-77
2023/07/25 02:51:46;;;;;;;8.63;3.10;;;;;;;;;;5049978;28;20064;-76
2023/07/25 02:54:13;;;;;;;6.75;3.08;;;;;;;;;;5048065;28;20053;-76
2023/07/25 02:56:39;;;;;;;5.22;2.90;;;;;;;;;;5048945;28;20416;-76
2023/07/25 02:59:04;;;;;;;7.55;2.90;;;;;;;;;;5047859;28;20045;-74
2023/07/25 03:01:31;;;;;;;11.68;3.10;;;;;;;;;;5052429;28;20045;-76
2023/07/25 03:03:56;;;;;;;7.47;2.80;;;;;;;;;;5044165;28;20596;-78
2023/07/25 03:06:23;;;;;;;8.75;3.20;;;;;;;;;;5045462;28;20053;-75
2023/07/25 03:08:48;;;;;;;10.02;3.13;;;;;;;;;;5049445;28;20045;-75
2023/07/25 03:11:14;;;;;;;8.88;3.08;;;;;;;;;;5047228;28;20051;-76
2023/07/25 03:13:40;;;;;;;9.10;3.50;;;;;;;;;;5039702;28;20053;-77
2023/07/25 03:16:06;;;;;;;7.85;3.00;;;;;;;;;;5050105;28;20052;-77
2023/07/25 03:18:32;;;;;;;10.93;3.28;;;;;;;;;;5053007;28;20124;-77
2023/07/25 03:20:58;;;;;;;7.60;2.85;;;;;;;;;;5058965;28;20050;-77
2023/07/25 03:23:24;;;;;;;12.05;3.50;;;;;;;;;;5039985;28;20049;-76
2023/07/25 03:25:50;;;;;;;7.93;3.03;;;;;;;;;;5048709;28;20052;-75
2023/07/25 03:28:16;;;;;;;10.68;3.70;;;;;;;;;;5054890;28;20516;-76
2023/07/25 03:30:43;;;;;;;7.20;2.95;;;;;;;;;;5044539;28;20075;-77
2023/07/25 03:33:09;;;;;;;8.65;3.13;;;;;;;;;;5047044;28;20642;-76
2023/07/25 03:35:35;;;;;;;7.45;2.88;;;;;;;;;;5047879;28;20119;-76
2023/07/25 03:38:01;;;;;;;9.07;2.90;;;;;;;;;;5049020;28;20045;-77
2023/07/25 03:40:28;;;;;;;9.23;3.25;;;;;;;;;;5052722;28;20070;-75
2023/07/25 03:42:54;;;;;;;9.18;2.95;;;;;;;;;;5045457;28;20057;-77
2023/07/25 03:45:20;;;;;;;13.25;3.72;;;;;;;;;;5049510;28;20052;-77
2023/07/25 03:47:46;;;;;;;8.82;3.67;;;;;;;;;;5047628;28;20489;-77
2023/07/25 03:50:12;;;;;;;9.27;3.60;;;;;;;;;;5050757;28;20064;-77
2023/07/25 03:52:39;;;;;;;11.35;3.25;;;;;;;;;;5046070;28;20052;-75
2023/07/25 03:55:08;;;;;;;9.13;3.15;;;;;;;;;;5046117;28;20366;-77
2023/07/25 03:57:35;;;;;;;10.70;3.50;;;;;;;;;;5041790;28;20187;-76
2023/07/25 04:00:01;;;;;;;8.52;3.20;;;;;;;;;;5050715;28;20512;-77
2023/07/25 04:02:28;;;;;;;6.95;3.58;;;;;;;;;;5048255;28;20135;-75
2023/07/25 04:04:54;;;;;;;11.95;3.42;;;;;;;;;;5046298;28;20041;-75
2023/07/25 04:07:21;;;;;;;8.13;3.40;;;;;;;;;;5049398;28;20394;-76
2023/07/25 04:09:47;;;;;;;8.55;3.60;;;;;;;;;;5047500;28;20412;-75
2023/07/25 04:12:12;;;;;;;5.28;3.28;;;;;;;;;;5049565;28;20053;-77
2023/07/25 04:14:41;;;;;;;10.68;3.55;;;;;;;;;;5049109;28;20052;-78
2023/07/25 04:17:06;;;;;;;9.90;3.78;;;;;;;;;;5049227;28;20065;-76
2023/07/25 04:19:32;;;;;;;11.68;3.90;;;;;;;;;;5040889;28;20041;-76
2023/07/25 04:21:58;;;;;;;9.90;3.42;;;;;;;;;;5030100;28;20094;-75
2023/07/25 04:24:25;;;;;;;9.48;4.18;;;;;;;;;;5039770;28;20053;-77
2023/07/25 04:26:50;;;;;;;15.50;4.30;;;;;;;;;;5045795;28;20060;-77
2023/07/25 04:29:17;;;;;;;12.88;4.63;;;;;;;;;;5046300;28;20558;-77
2023/07/25 04:31:44;;;;;;;9.65;3.90;;;;;;;;;;5047783;28;20102;-78
2023/07/25 04:34:10;;;;;;;9.80;4.20;;;;;;;;;;5047679;28;20415;-76
2023/07/25 04:36:36;;;;;;;14.68;4.20;;;;;;;;;;5045699;28;20063;-77
2023/07/25 04:39:02;;;;;;;10.20;4.28;;;;;;;;;;5051943;28;20045;-74
2023/07/25 04:41:28;;;;;;;11.73;3.75;;;;;;;;;;5061649;28;20049;-77
2023/07/25 04:43:54;;;;;;;10.48;3.75;;;;;;;;;;5054520;28;20045;-78
2023/07/25 04:46:20;;;;;;;9.18;3.80;;;;;;;;;;5054058;28;20140;-76
2023/07/25 04:48:46;;;;;;;10.40;4.10;;;;;;;;;;5056281;28;20499;-77
2023/07/25 04:51:11;;;;;;;10.73;3.72;;;;;;;;;;5056867;28;20047;-75
2023/07/25 04:53:38;;;;;;;10.18;3.85;;;;;;;;;;5051100;28;20149;-76
2023/07/25 04:56:04;;;;;;;13.05;4.03;;;;;;;;;;5053669;28;20132;-77
2023/07/25 04:58:30;;;;;;;7.90;3.60;;;;;;;;;;5053131;28;20045;-76
2023/07/25 05:00:56;;;;;;;8.90;3.88;;;;;;;;;;5051222;28;20053;-78
2023/07/25 05:03:23;;;;;;;8.45;4.07;;;;;;;;;;5051531;28;20536;-76
2023/07/25 05:05:51;;;;;;;12.15;4.13;;;;;;;;;;5052039;28;20051;-77
2023/07/25 05:08:17;;;;;;;11.98;4.07;;;;;;;;;;5060563;28;20055;-75
2023/07/25 05:10:43;;;;;;;14.90;4.30;;;;;;;;;;5060972;28;20358;-76
2023/07/25 05:13:10;;;;;;;8.52;3.47;;;;;;;;;;5050540;28;20045;-75
2023/07/25 05:15:37;;;;;;;11.20;4.03;;;;;;;;;;5055449;28;20049;-77
2023/07/25 05:18:03;;;;;;;13.80;3.90;;;;;;;;;;5056061;28;20106;-77
2023/07/25 05:20:29;;;;;;;17.50;3.65;;;;;;;;;;5058801;28;20065;-79
2023/07/25 05:22:55;;;;;;;11.75;3.70;;;;;;;;;;5060241;28;20049;-81
2023/07/25 05:25:21;;;;;;;12.70;3.78;;;;;;;;;;5048358;28;20052;-78
2023/07/25 05:27:48;;;;;;;11.32;3.92;;;;;;;;;;5055046;28;20084;-78
2023/07/25 05:30:15;;;;;;;15.23;3.80;;;;;;;;;;5061197;28;20048;-76
2023/07/25 05:32:42;;;;;;;13.63;4.13;;;;;;;;;;5054441;28;20045;-81
2023/07/25 05:35:07;;;;;;;14.95;4.05;;;;;;;;;;5056687;28;20102;-77
2023/07/25 05:37:38;;;;;;;13.93;3.60;;;;;;;;;;5054769;28;20043;-76
2023/07/25 05:40:05;;;;;;;12.45;3.28;;;;;;;;;;5052010;28;20060;-76
2023/07/25 05:42:31;;;;;;;7.07;3.20;;;;;;;;;;5059277;28;20049;-77
2023/07/25 05:45:01;;;;;;;14.75;3.30;;;;;;;;;;5050370;28;20049;-77
2023/07/25 05:47:28;;;;;;;6.97;2.67;;;;;;;;;;5056845;28;20053;-77
2023/07/25 05:49:55;;;;;;;5.50;2.65;;;;;;;;;;5057587;28;20057;-78
2023/07/25 05:52:21;;;;;;;4.93;2.58;;;;;;;;;;5062684;28;20048;-78
2023/07/25 05:54:48;;;;;;;6.82;2.60;;;;;;;;;;5061468;28;20057;-77
2023/07/25 05:57:15;;;;;;;8.25;2.60;;;;;;;;;;5060300;28;20044;-75
2023/07/25 05:59:43;;;;;;;15.10;2.83;;;;;;;;;;5059069;28;20045;-77
2023/07/25 06:02:10;;;;;;;16.85;3.22;;;;;;;;;;5057603;28;20102;-76
2023/07/25 06:04:36;;;;;;;8.48;2.70;;;;;;;;;;5052375;28;20072;-75
2023/07/25 06:07:02;;;;;;;4.25;2.53;;;;;;;;;;5055287;28;20112;-78
2023/07/25 06:09:28;;;;;;;9.52;3.22;;;;;;;;;;5051952;28;20051;-75
2023/07/25 06:11:56;;;;;;;10.35;2.60;;;;;;;;;;5052924;28;20087;-76
2023/07/25 06:14:21;;;;;;;5.97;2.80;;;;;;;;;;5051867;28;20151;-75
2023/07/25 06:16:48;;;;;;;7.78;3.13;;;;;;;;;;5055851;28;20069;-77
2023/07/25 06:19:15;;;;;;;10.30;2.90;;;;;;;;;;5054501;28;20045;-78
2023/07/25 06:21:41;;;;;;;7.45;2.72;;;;;;;;;;5051053;28;20049;-77
2023/07/25 06:24:08;;;;;;;16.52;2.78;;;;;;;;;;5052324;28;20049;-77
2023/07/25 06:26:38;;;;;;;8.75;3.25;;;;;;;;;;5052848;28;20053;-78
2023/07/25 06:29:03;;;;;;;8.00;3.03;;;;;;;;;;5054783;28;20057;-77
2023/07/25 06:31:30;;;;;;;7.90;3.03;;;;;;;;;;5056288;28;20056;-76
2023/07/25 06:33:56;;;;;;;7.25;3.60;;;;;;;;;;5054678;28;20048;-77
2023/07/25 06:36:22;;;;;;;8.90;2.83;;;;;;;;;;5050495;28;20049;-76
2023/07/25 06:38:49;;;;;;;6.80;2.90;;;;;;;;;;5059158;28;20065;-77
2023/07/25 06:41:19;;;;;;;9.00;3.30;;;;;;;;;;5058494;28;20055;-75
2023/07/25 06:43:44;;;;;;;6.68;3.42;;;;;;;;;;5049510;28;20084;-75
2023/07/25 06:46:10;;;;;;;8.45;3.35;;;;;;;;;;5059324;28;20067;-78
2023/07/25 06:48:37;;;;;;;8.80;3.85;;;;;;;;;;5055490;28;20104;-79
2023/07/25 06:51:04;;;;;;;5.88;3.10;;;;;;;;;;5044322;28;20040;-80
2023/07/25 06:53:29;;;;;;;10.07;3.88;;;;;;;;;;5058621;28;20044;-76
2023/07/25 06:55:55;;;;;;;8.00;3.25;;;;;;;;;;5048203;28;20041;-75
2023/07/25 06:59:01;;;;;;;6.40;2.80;;;;;;;;;;5047365;28;20048;-74
2023/07/25 07:02:41;;;;;;;10.98;3.58;;;;;;;;;;5055874;28;20052;-75
2023/07/25 07:06:22;;;;;;;5.65;2.78;;;;;;;;;;5047466;28;20045;-77
2023/07/25 07:09:38;;;;;;;9.55;2.70;;;;;;;;;;5044305;28;20053;-74
2023/07/25 07:12:05;;;;;;;6.65;3.00;;;;;;;;;;5041102;28;20064;-74
2023/07/25 07:14:31;;;;;;;7.50;3.13;;;;;;;;;;5037375;28;20060;-79
2023/07/25 07:17:00;;;;;;;7.38;3.25;;;;;;;;;;5058487;28;20040;-76
2023/07/25 07:19:26;;;;;;;10.38;3.53;;;;;;;;;;5046701;28;20064;-79
2023/07/25 07:21:52;;;;;;;6.55;2.88;;;;;;;;;;5057146;28;20108;-80
2023/07/25 07:24:18;;;;;;;9.93;3.20;;;;;;;;;;5049134;28;20412;-77
2023/07/25 07:26:44;;;;;;;10.70;3.70;;;;;;;;;;5044678;28;20053;-74
2023/07/25 07:29:11;;;;;;;6.10;3.30;;;;;;;;;;5050118;28;20409;-72
2023/07/25 07:32:17;;;;;;;10.13;3.00;;;;;;;;;;5056199;28;20056;-78
2023/07/25 07:35:58;;;;;;;4.78;2.83;;;;;;;;;;5049727;28;20304;-79
2023/07/25 07:39:39;;;;;;;9.30;3.22;;;;;;;;;;5042705;28;20041;-71
2023/07/25 07:43:18;;;;;;;9.15;3.20;;;;;;;;;;5045020;28;20049;-68
2023/07/25 07:46:58;;;;;;;14.15;3.17;;;;;;;;;;5041933;28;20048;-70
2023/07/25 07:50:39;;;;;;;9.75;3.22;;;;;;;;;;5046101;28;22203;-71
2023/07/25 07:54:20;;;;;;;7.03;3.17;;;;;;;;;;5044232;28;20579;-72
2023/07/25 07:57:42;;;;;;;6.00;2.65;;;;;;;;;;5045729;28;20124;-74
2023/07/25 08:00:09;;;;;;;6.35;2.80;;;;;;;;;;5042956;28;20052;-72
2023/07/25 08:02:35;;;;;;;7.25;3.00;;;;;;;;;;5046878;28;20055;-78
2023/07/25 08:05:02;;;;;;;10.38;3.10;;;;;;;;;;5047583;28;20048;-76
2023/07/25 08:07:28;;;;;;;9.45;3.22;;;;;;;;;;5044584;28;20342;-77
2023/07/25 08:10:34;;;;;;;5.78;2.50;;;;;;;;;;5050172;28;20044;-76
2023/07/25 08:14:14;;;;;;;6.82;3.15;;;;;;;;;;5048569;28;20049;-79
2023/07/25 08:17:55;;;;;;;8.15;3.05;;;;;;;;;;5050603;28;20080;-77
2023/07/25 08:21:35;;;;;;;8.70;3.15;;;;;;;;;;5045374;28;20048;-76
2023/07/25 08:25:15;;;;;;;7.57;3.03;;;;;;;;;;5053201;28;20055;-81
2023/07/25 08:28:57;;;;;;;9.32;3.00;;;;;;;;;;5044801;28;20049;-77
2023/07/25 08:32:37;;;;;;;7.65;3.00;;;;;;;;;;5045904;28;20072;-73
2023/07/25 08:36:17;;;;;;;9.32;2.80;;;;;;;;;;5049218;28;20361;-82
2023/07/25 08:39:59;;;;;;;10.30;3.17;;;;;;;;;;5050304;28;20536;-80
2023/07/25 08:43:38;;;;;;;9.30;2.90;;;;;;;;;;5049416;28;20052;-77
2023/07/25 08:47:19;;;;;;;7.55;2.50;;;;;;;;;;5052590;28;20055;-73
2023/07/25 08:51:01;;;;;;;7.85;2.80;;;;;;;;;;5052509;28;20053;-79
2023/07/25 08:54:44;;;;;;;7.60;3.25;;;;;;;;;;5049511;28;20055;-76
2023/07/25 08:58:27;;;;;;;5.07;2.50;;;;;;;;;;5054774;28;20175;-80
2023/07/25 09:02:08;;;;;;;4.13;2.30;;;;;;;;;;5055294;28;20044;-76
2023/07/25 09:04:49;;;;;;;4.13;2.42;;;;;;;;;;5059707;28;20057;-82
2023/07/25 09:07:30;;;;;;;8.52;2.88;;;;;;;;;;5036434;28;20053;-73
2023/07/25 09:10:03;;;;;;;4.55;2.20;;;;;;;;;;5042984;28;20151;-72
2023/07/25 09:12:30;;;;;;;12.57;2.60;;;;;;;;;;5046662;28;20072;-75
2023/07/25 09:14:56;;;;;;;6.22;2.38;;;;;;;;;;5052268;28;20063;-73
2023/07/25 09:17:21;;;;;;;5.30;2.58;;;;;;;;;;5051246;28;20049;-76
2023/07/25 09:19:48;;;;;;;13.40;2.70;;;;;;;;;;5046602;28;20064;-74
2023/07/25 09:22:27;;;;;;;7.82;2.55;;;;;;;;;;5049687;28;20056;-77
2023/07/25 09:24:53;;;;;;;9.90;2.50;;;;;;;;;;5044924;28;20049;-72
2023/07/25 09:27:19;;;;;;;3.63;2.50;;;;;;;;;;5042042;28;20051;-73
2023/07/25 09:29:50;;;;;;;7.32;2.35;;;;;;;;;;5042613;28;20052;-72
2023/07/25 09:32:27;;;;;;;7.25;2.75;;;;;;;;;;5040472;28;20103;-71
2023/07/25 09:35:06;;;;;;;6.70;2.75;;;;;;;;;;5048751;28;20053;-81
2023/07/25 09:37:32;;;;;;;5.20;2.35;;;;;;;;;;5065220;28;20073;-81
2023/07/25 09:39:58;;;;;;;5.97;2.47;;;;;;;;;;5065096;28;20049;-77
2023/07/25 09:42:25;;;;;;;7.53;3.05;;;;;;;;;;5063218;28;20064;-77
2023/07/25 09:44:53;;;;;;;7.70;2.40;;;;;;;;;;5044504;28;20131;-78
2023/07/25 09:47:27;;;;;;;5.85;2.28;;;;;;;;;;5052344;28;20056;-78
2023/07/25 09:49:55;;;;;;;7.13;2.67;;;;;;;;;;5049053;28;20508;-76
2023/07/25 09:52:22;;;;;;;7.80;2.50;;;;;;;;;;5046376;28;20048;-80
2023/07/25 09:54:49;;;;;;;9.63;2.60;;;;;;;;;;5053468;28;20041;-78
2023/07/25 09:57:15;;;;;;;5.20;2.33;;;;;;;;;;5051023;28;20067;-71
2023/07/25 09:59:42;;;;;;;4.13;2.45;;;;;;;;;;5043783;28;20097;-67
2023/07/25 10:02:09;;;;;;;4.72;2.30;;;;;;;;;;5044981;28;20557;-66
2023/07/25 10:04:36;;;;;;;7.80;2.40;;;;;;;;;;5050672;28;20069;-67
2023/07/25 10:07:02;;;;;;;4.35;2.10;;;;;;;;;;5045264;28;20054;-67
2023/07/25 10:09:29;;;;;;;9.07;2.45;;;;;;;;;;5043575;28;22028;-70
2023/07/25 10:11:56;;;;;;;4.88;1.90;;;;;;;;;;5046659;28;20041;-70
2023/07/25 10:15:02;;;;;;;8.45;2.38;;;;;;;;;;5038417;28;20048;-67
2023/07/25 10:18:45;;;;;;;5.53;2.20;;;;;;;;;;5042147;28;20051;-68
2023/07/25 10:21:51;;;;;;;10.60;2.42;;;;;;;;;;5042821;28;20712;-72
2023/07/25 10:24:19;;;;;;;8.20;2.22;;;;;;;;;;5040339;28;20057;-70
2023/07/25 10:27:11;;;;;;;14.98;2.58;;;;;;;;;;5043201;28;20554;-71
